sensor_id;sensor_type;location;lat;lon;timestamp;P1;durP1;ratioP1;P2;durP2;ratioP2
68987;SDS011;56038;46.080;11.116;2023-02-01T00:03:05;11.98;;;7.68;;
68987;SDS011;56038;46.080;11.116;2023-02-01T00:08:08;10.68;;;7.93;;
68987;SDS011;56038;46.080;11.116;2023-02-01T00:13:10;11.73;;;7.63;;
68987;SDS011;56038;46.080;11.116;2023-02-01T00:18:13;12.07;;;6.93;;
68987;SDS011;56038;46.080;11.116;2023-02-01T00:23:15;14.15;;;8.10;;
68987;SDS011;56038;46.080;11.116;2023-02-01T00:28:16;13.45;;;8.18;;
68987;SDS011;56038;46.080;11.116;2023-02-01T00:33:20;11.77;;;7.57;;
68987;SDS011;56038;46.080;11.116;2023-02-01T00:38:21;9.10;;;6.32;;
68987;SDS011;56038;46.080;11.116;2023-02-01T00:43:23;9.95;;;6.22;;
68987;SDS011;56038;46.080;11.116;2023-02-01T00:48:26;9.52;;;7.20;;
68987;SDS011;56038;46.080;11.116;2023-02-01T00:53:28;9.88;;;5.68;;
68987;SDS011;56038;46.080;11.116;2023-02-01T00:58:31;11.63;;;5.90;;
68987;SDS011;56038;46.080;11.116;2023-02-01T01:03:35;9.60;;;6.45;;
68987;SDS011;56038;46.080;11.116;2023-02-01T01:08:38;9.32;;;5.53;;
68987;SDS011;56038;46.080;11.116;2023-02-01T01:13:41;10.23;;;5.78;;
68987;SDS011;56038;46.080;11.116;2023-02-01T01:18:45;12.15;;;5.45;;
68987;SDS011;56038;46.080;11.116;2023-02-01T01:23:47;13.10;;;6.38;;
68987;SDS011;56038;46.080;11.116;2023-02-01T01:28:49;8.95;;;5.60;;
68987;SDS011;56038;46.080;11.116;2023-02-01T01:33:53;9.80;;;6.55;;
68987;SDS011;56038;46.080;11.116;2023-02-01T01:38:56;8.85;;;6.25;;
68987;SDS011;56038;46.080;11.116;2023-02-01T01:43:59;8.68;;;5.13;;
68987;SDS011;56038;46.080;11.116;2023-02-01T01:49:05;7.97;;;5.45;;
68987;SDS011;56038;46.080;11.116;2023-02-01T01:54:12;11.65;;;5.40;;
68987;SDS011;56038;46.080;11.116;2023-02-01T01:59:18;8.27;;;5.13;;
68987;SDS011;56038;46.080;11.116;2023-02-01T02:04:22;7.07;;;4.55;;
68987;SDS011;56038;46.080;11.116;2023-02-01T02:09:25;6.60;;;4.45;;
68987;SDS011;56038;46.080;11.116;2023-02-01T02:14:27;5.97;;;4.57;;
68987;SDS011;56038;46.080;11.116;2023-02-01T02:31:13;7.43;;;4.82;;
68987;SDS011;56038;46.080;11.116;2023-02-01T02:36:31;5.00;;;4.18;;
68987;SDS011;56038;46.080;11.116;2023-02-01T02:41:47;5.55;;;4.10;;
68987;SDS011;56038;46.080;11.116;2023-02-01T02:47:14;7.57;;;4.70;;
68987;SDS011;56038;46.080;11.116;2023-02-01T02:52:29;6.70;;;4.18;;
68987;SDS011;56038;46.080;11.116;2023-02-01T02:57:50;4.55;;;3.47;;
68987;SDS011;56038;46.080;11.116;2023-02-01T03:03:09;5.70;;;4.13;;
68987;SDS011;56038;46.080;11.116;2023-02-01T03:08:30;6.45;;;4.53;;
68987;SDS011;56038;46.080;11.116;2023-02-01T03:13:34;5.72;;;4.35;;
68987;SDS011;56038;46.080;11.116;2023-02-01T03:18:41;5.15;;;4.28;;
68987;SDS011;56038;46.080;11.116;2023-02-01T03:23:51;6.07;;;4.63;;
68987;SDS011;56038;46.080;11.116;2023-02-01T03:29:00;7.75;;;4.75;;
68987;SDS011;56038;46.080;11.116;2023-02-01T03:34:06;5.93;;;3.95;;
68987;SDS011;56038;46.080;11.116;2023-02-01T03:39:11;6.05;;;4.55;;
68987;SDS011;56038;46.080;11.116;2023-02-01T03:44:19;6.35;;;4.15;;
68987;SDS011;56038;46.080;11.116;2023-02-01T03:49:26;6.35;;;4.20;;
68987;SDS011;56038;46.080;11.116;2023-02-01T03:59:34;6.47;;;4.43;;
68987;SDS011;56038;46.080;11.116;2023-02-01T04:04:40;5.70;;;4.75;;
68987;SDS011;56038;46.080;11.116;2023-02-01T04:09:43;7.22;;;4.63;;
68987;SDS011;56038;46.080;11.116;2023-02-01T04:14:45;8.00;;;4.72;;
68987;SDS011;56038;46.080;11.116;2023-02-01T04:19:47;7.78;;;5.35;;
68987;SDS011;56038;46.080;11.116;2023-02-01T04:24:50;14.45;;;6.72;;
68987;SDS011;56038;46.080;11.116;2023-02-01T04:29:52;7.07;;;5.13;;
68987;SDS011;56038;46.080;11.116;2023-02-01T04:34:53;10.35;;;6.88;;
68987;SDS011;56038;46.080;11.116;2023-02-01T04:39:56;9.73;;;5.53;;
68987;SDS011;56038;46.080;11.116;2023-02-01T04:44:58;6.30;;;4.25;;
68987;SDS011;56038;46.080;11.116;2023-02-01T04:50:00;6.40;;;4.43;;
68987;SDS011;56038;46.080;11.116;2023-02-01T04:55:04;7.10;;;5.38;;
68987;SDS011;56038;46.080;11.116;2023-02-01T05:00:07;9.60;;;6.00;;
68987;SDS011;56038;46.080;11.116;2023-02-01T05:05:10;7.82;;;5.45;;
68987;SDS011;56038;46.080;11.116;2023-02-01T05:10:13;7.38;;;4.97;;
68987;SDS011;56038;46.080;11.116;2023-02-01T05:15:15;7.35;;;5.15;;
68987;SDS011;56038;46.080;11.116;2023-02-01T05:20:17;21.20;;;9.07;;
68987;SDS011;56038;46.080;11.116;2023-02-01T05:25:20;13.15;;;7.38;;
68987;SDS011;56038;46.080;11.116;2023-02-01T05:30:22;14.73;;;7.47;;
68987;SDS011;56038;46.080;11.116;2023-02-01T05:35:24;18.17;;;8.85;;
68987;SDS011;56038;46.080;11.116;2023-02-01T05:40:27;15.55;;;8.88;;
68987;SDS011;56038;46.080;11.116;2023-02-01T05:45:29;18.48;;;9.57;;
68987;SDS011;56038;46.080;11.116;2023-02-01T05:50:31;12.77;;;7.30;;
68987;SDS011;56038;46.080;11.116;2023-02-01T05:55:34;14.52;;;7.10;;
68987;SDS011;56038;46.080;11.116;2023-02-01T06:00:35;12.57;;;6.93;;
68987;SDS011;56038;46.080;11.116;2023-02-01T06:05:37;9.07;;;5.45;;
68987;SDS011;56038;46.080;11.116;2023-02-01T06:10:40;7.35;;;5.60;;
68987;SDS011;56038;46.080;11.116;2023-02-01T06:15:42;5.78;;;4.50;;
68987;SDS011;56038;46.080;11.116;2023-02-01T06:20:44;7.25;;;5.00;;
68987;SDS011;56038;46.080;11.116;2023-02-01T06:25:47;6.55;;;5.30;;
68987;SDS011;56038;46.080;11.116;2023-02-01T06:30:49;5.70;;;4.32;;
68987;SDS011;56038;46.080;11.116;2023-02-01T06:35:56;6.95;;;4.63;;
68987;SDS011;56038;46.080;11.116;2023-02-01T06:40:59;6.53;;;5.00;;
68987;SDS011;56038;46.080;11.116;2023-02-01T06:46:02;7.20;;;4.97;;
68987;SDS011;56038;46.080;11.116;2023-02-01T06:51:05;8.60;;;5.15;;
68987;SDS011;56038;46.080;11.116;2023-02-01T06:56:09;8.60;;;6.57;;
68987;SDS011;56038;46.080;11.116;2023-02-01T07:01:11;10.73;;;5.72;;
68987;SDS011;56038;46.080;11.116;2023-02-01T07:06:13;9.95;;;6.15;;
68987;SDS011;56038;46.080;11.116;2023-02-01T07:11:16;8.63;;;6.18;;
68987;SDS011;56038;46.080;11.116;2023-02-01T07:16:20;8.63;;;5.45;;
68987;SDS011;56038;46.080;11.116;2023-02-01T07:21:21;12.48;;;6.40;;
68987;SDS011;56038;46.080;11.116;2023-02-01T07:26:25;9.95;;;5.93;;
68987;SDS011;56038;46.080;11.116;2023-02-01T07:31:26;11.25;;;5.32;;
68987;SDS011;56038;46.080;11.116;2023-02-01T07:36:29;12.07;;;5.65;;
68987;SDS011;56038;46.080;11.116;2023-02-01T07:41:32;9.48;;;5.63;;
68987;SDS011;56038;46.080;11.116;2023-02-01T07:46:34;12.95;;;7.55;;
68987;SDS011;56038;46.080;11.116;2023-02-01T07:51:36;7.63;;;5.35;;
68987;SDS011;56038;46.080;11.116;2023-02-01T07:56:39;10.15;;;4.90;;
68987;SDS011;56038;46.080;11.116;2023-02-01T08:01:41;10.40;;;6.30;;
68987;SDS011;56038;46.080;11.116;2023-02-01T08:06:43;7.60;;;5.25;;
68987;SDS011;56038;46.080;11.116;2023-02-01T08:11:46;7.07;;;5.25;;
68987;SDS011;56038;46.080;11.116;2023-02-01T08:16:48;10.25;;;6.07;;
68987;SDS011;56038;46.080;11.116;2023-02-01T08:21:50;6.63;;;5.22;;
68987;SDS011;56038;46.080;11.116;2023-02-01T08:26:53;8.88;;;5.65;;
68987;SDS011;56038;46.080;11.116;2023-02-01T08:31:55;7.22;;;5.15;;
68987;SDS011;56038;46.080;11.116;2023-02-01T08:36:56;6.57;;;5.18;;
68987;SDS011;56038;46.080;11.116;2023-02-01T08:42:00;6.90;;;4.65;;
68987;SDS011;56038;46.080;11.116;2023-02-01T08:47:20;8.48;;;5.78;;
68987;SDS011;56038;46.080;11.116;2023-02-01T08:52:21;9.90;;;5.95;;
68987;SDS011;56038;46.080;11.116;2023-02-01T08:57:25;12.45;;;5.95;;
68987;SDS011;56038;46.080;11.116;2023-02-01T09:02:27;9.13;;;5.22;;
68987;SDS011;56038;46.080;11.116;2023-02-01T09:07:29;8.07;;;5.97;;
68987;SDS011;56038;46.080;11.116;2023-02-01T09:12:32;8.88;;;5.38;;
68987;SDS011;56038;46.080;11.116;2023-02-01T09:17:35;9.23;;;5.38;;
68987;SDS011;56038;46.080;11.116;2023-02-01T09:22:37;9.65;;;5.30;;
68987;SDS011;56038;46.080;11.116;2023-02-01T09:27:40;7.35;;;5.40;;
68987;SDS011;56038;46.080;11.116;2023-02-01T09:32:42;8.05;;;5.78;;
68987;SDS011;56038;46.080;11.116;2023-02-01T09:37:43;11.07;;;5.60;;
68987;SDS011;56038;46.080;11.116;2023-02-01T09:48:17;8.88;;;6.45;;
68987;SDS011;56038;46.080;11.116;2023-02-01T09:53:23;7.35;;;5.35;;
68987;SDS011;56038;46.080;11.116;2023-02-01T09:58:32;11.63;;;5.57;;
68987;SDS011;56038;46.080;11.116;2023-02-01T10:03:36;7.45;;;4.55;;
68987;SDS011;56038;46.080;11.116;2023-02-01T10:08:44;7.05;;;4.47;;
68987;SDS011;56038;46.080;11.116;2023-02-01T10:14:02;5.72;;;4.07;;
68987;SDS011;56038;46.080;11.116;2023-02-01T10:19:17;7.53;;;3.30;;
68987;SDS011;56038;46.080;11.116;2023-02-01T10:29:52;5.53;;;3.10;;
68987;SDS011;56038;46.080;11.116;2023-02-01T10:34:59;3.42;;;3.13;;
68987;SDS011;56038;46.080;11.116;2023-02-01T10:40:05;5.63;;;3.30;;
68987;SDS011;56038;46.080;11.116;2023-02-01T10:45:20;5.95;;;3.40;;
68987;SDS011;56038;46.080;11.116;2023-02-01T10:50:29;4.95;;;3.38;;
68987;SDS011;56038;46.080;11.116;2023-02-01T10:55:37;4.03;;;2.97;;
68987;SDS011;56038;46.080;11.116;2023-02-01T11:00:47;3.37;;;2.53;;
68987;SDS011;56038;46.080;11.116;2023-02-01T11:05:54;3.58;;;2.75;;
68987;SDS011;56038;46.080;11.116;2023-02-01T11:10:58;2.78;;;2.50;;
68987;SDS011;56038;46.080;11.116;2023-02-01T11:16:04;4.57;;;3.00;;
68987;SDS011;56038;46.080;11.116;2023-02-01T11:21:07;4.38;;;3.10;;
68987;SDS011;56038;46.080;11.116;2023-02-01T11:26:11;3.70;;;3.08;;
68987;SDS011;56038;46.080;11.116;2023-02-01T11:31:16;3.57;;;2.57;;
68987;SDS011;56038;46.080;11.116;2023-02-01T11:36:20;4.82;;;2.92;;
68987;SDS011;56038;46.080;11.116;2023-02-01T11:41:26;5.82;;;3.03;;
68987;SDS011;56038;46.080;11.116;2023-02-01T11:46:30;5.75;;;2.22;;
68987;SDS011;56038;46.080;11.116;2023-02-01T11:51:39;3.15;;;2.10;;
68987;SDS011;56038;46.080;11.116;2023-02-01T12:02:15;4.55;;;2.20;;
68987;SDS011;56038;46.080;11.116;2023-02-01T12:07:42;1.92;;;1.70;;
68987;SDS011;56038;46.080;11.116;2023-02-01T12:12:57;3.83;;;2.10;;
68987;SDS011;56038;46.080;11.116;2023-02-01T12:18:30;4.05;;;2.08;;
68987;SDS011;56038;46.080;11.116;2023-02-01T12:23:59;2.00;;;1.80;;
68987;SDS011;56038;46.080;11.116;2023-02-01T12:29:16;3.30;;;2.10;;
68987;SDS011;56038;46.080;11.116;2023-02-01T12:34:39;2.47;;;1.90;;
68987;SDS011;56038;46.080;11.116;2023-02-01T12:40:00;3.28;;;1.73;;
68987;SDS011;56038;46.080;11.116;2023-02-01T12:45:25;2.63;;;2.10;;
68987;SDS011;56038;46.080;11.116;2023-02-01T12:50:35;1.88;;;1.75;;
68987;SDS011;56038;46.080;11.116;2023-02-01T12:55:43;3.25;;;2.80;;
68987;SDS011;56038;46.080;11.116;2023-02-01T13:00:51;3.22;;;2.88;;
68987;SDS011;56038;46.080;11.116;2023-02-01T13:06:00;4.88;;;3.38;;
68987;SDS011;56038;46.080;11.116;2023-02-01T13:11:06;4.25;;;3.42;;
68987;SDS011;56038;46.080;11.116;2023-02-01T13:16:14;3.92;;;2.90;;
68987;SDS011;56038;46.080;11.116;2023-02-01T13:21:24;6.50;;;3.08;;
68987;SDS011;56038;46.080;11.116;2023-02-01T13:26:28;5.53;;;2.95;;
68987;SDS011;56038;46.080;11.116;2023-02-01T13:31:34;6.45;;;2.97;;
68987;SDS011;56038;46.080;11.116;2023-02-01T13:36:59;6.15;;;3.00;;
68987;SDS011;56038;46.080;11.116;2023-02-01T13:42:13;2.92;;;2.65;;
68987;SDS011;56038;46.080;11.116;2023-02-01T13:47:21;6.03;;;2.83;;
68987;SDS011;56038;46.080;11.116;2023-02-01T13:52:31;3.78;;;2.28;;
68987;SDS011;56038;46.080;11.116;2023-02-01T13:57:38;3.55;;;2.65;;
68987;SDS011;56038;46.080;11.116;2023-02-01T14:02:47;3.28;;;2.83;;
68987;SDS011;56038;46.080;11.116;2023-02-01T14:08:10;3.55;;;2.78;;
68987;SDS011;56038;46.080;11.116;2023-02-01T14:13:20;3.33;;;2.80;;
68987;SDS011;56038;46.080;11.116;2023-02-01T14:24:04;6.20;;;2.75;;
68987;SDS011;56038;46.080;11.116;2023-02-01T14:29:26;3.45;;;2.60;;
68987;SDS011;56038;46.080;11.116;2023-02-01T14:34:37;3.00;;;2.70;;
68987;SDS011;56038;46.080;11.116;2023-02-01T14:39:49;8.32;;;2.78;;
68987;SDS011;56038;46.080;11.116;2023-02-01T14:44:56;5.18;;;2.85;;
68987;SDS011;56038;46.080;11.116;2023-02-01T14:50:35;4.13;;;2.60;;
68987;SDS011;56038;46.080;11.116;2023-02-01T14:55:43;3.63;;;2.40;;
68987;SDS011;56038;46.080;11.116;2023-02-01T15:00:47;2.83;;;2.60;;
68987;SDS011;56038;46.080;11.116;2023-02-01T15:05:55;3.13;;;2.33;;
68987;SDS011;56038;46.080;11.116;2023-02-01T15:11:00;2.40;;;2.05;;
68987;SDS011;56038;46.080;11.116;2023-02-01T15:16:10;2.97;;;2.38;;
68987;SDS011;56038;46.080;11.116;2023-02-01T15:21:15;3.17;;;2.20;;
68987;SDS011;56038;46.080;11.116;2023-02-01T15:26:26;3.17;;;2.73;;
68987;SDS011;56038;46.080;11.116;2023-02-01T15:31:33;6.50;;;2.63;;
68987;SDS011;56038;46.080;11.116;2023-02-01T15:36:37;3.53;;;2.80;;
68987;SDS011;56038;46.080;11.116;2023-02-01T15:41:41;5.50;;;2.38;;
68987;SDS011;56038;46.080;11.116;2023-02-01T15:46:45;4.35;;;2.70;;
68987;SDS011;56038;46.080;11.116;2023-02-01T15:51:48;5.50;;;2.22;;
68987;SDS011;56038;46.080;11.116;2023-02-01T15:56:52;3.55;;;2.33;;
68987;SDS011;56038;46.080;11.116;2023-02-01T16:01:55;2.15;;;1.92;;
68987;SDS011;56038;46.080;11.116;2023-02-01T16:06:58;2.95;;;2.58;;
68987;SDS011;56038;46.080;11.116;2023-02-01T16:12:17;3.90;;;2.90;;
68987;SDS011;56038;46.080;11.116;2023-02-01T16:17:25;2.65;;;2.22;;
68987;SDS011;56038;46.080;11.116;2023-02-01T16:22:27;4.72;;;2.83;;
68987;SDS011;56038;46.080;11.116;2023-02-01T16:27:30;4.63;;;2.88;;
68987;SDS011;56038;46.080;11.116;2023-02-01T16:32:32;4.90;;;2.97;;
68987;SDS011;56038;46.080;11.116;2023-02-01T16:37:33;3.75;;;2.97;;
68987;SDS011;56038;46.080;11.116;2023-02-01T16:42:38;3.05;;;2.45;;
68987;SDS011;56038;46.080;11.116;2023-02-01T16:47:40;5.38;;;2.25;;
68987;SDS011;56038;46.080;11.116;2023-02-01T16:52:46;3.65;;;2.47;;
68987;SDS011;56038;46.080;11.116;2023-02-01T16:57:50;6.22;;;3.40;;
68987;SDS011;56038;46.080;11.116;2023-02-01T17:02:54;3.92;;;2.88;;
68987;SDS011;56038;46.080;11.116;2023-02-01T17:07:56;5.10;;;3.38;;
68987;SDS011;56038;46.080;11.116;2023-02-01T17:13:07;5.20;;;3.97;;
68987;SDS011;56038;46.080;11.116;2023-02-01T17:18:13;10.07;;;4.65;;
68987;SDS011;56038;46.080;11.116;2023-02-01T17:23:17;6.13;;;4.65;;
68987;SDS011;56038;46.080;11.116;2023-02-01T17:28:20;8.52;;;5.25;;
68987;SDS011;56038;46.080;11.116;2023-02-01T17:33:23;6.93;;;4.00;;
68987;SDS011;56038;46.080;11.116;2023-02-01T17:38:27;5.18;;;4.07;;
68987;SDS011;56038;46.080;11.116;2023-02-01T17:43:30;7.20;;;5.10;;
68987;SDS011;56038;46.080;11.116;2023-02-01T17:48:32;6.32;;;4.93;;
68987;SDS011;56038;46.080;11.116;2023-02-01T17:53:34;10.93;;;6.60;;
68987;SDS011;56038;46.080;11.116;2023-02-01T17:58:37;10.13;;;6.07;;
68987;SDS011;56038;46.080;11.116;2023-02-01T18:03:39;8.85;;;5.13;;
68987;SDS011;56038;46.080;11.116;2023-02-01T18:08:41;6.32;;;4.47;;
68987;SDS011;56038;46.080;11.116;2023-02-01T18:13:45;7.53;;;4.97;;
68987;SDS011;56038;46.080;11.116;2023-02-01T18:18:47;10.45;;;6.57;;
68987;SDS011;56038;46.080;11.116;2023-02-01T18:23:49;8.65;;;5.70;;
68987;SDS011;56038;46.080;11.116;2023-02-01T18:28:52;9.02;;;6.00;;
68987;SDS011;56038;46.080;11.116;2023-02-01T18:33:54;7.80;;;5.85;;
68987;SDS011;56038;46.080;11.116;2023-02-01T18:38:58;6.25;;;5.05;;
68987;SDS011;56038;46.080;11.116;2023-02-01T18:44:01;7.32;;;5.00;;
68987;SDS011;56038;46.080;11.116;2023-02-01T18:49:03;6.93;;;5.43;;
68987;SDS011;56038;46.080;11.116;2023-02-01T18:54:05;9.93;;;5.50;;
68987;SDS011;56038;46.080;11.116;2023-02-01T18:59:08;11.43;;;6.32;;
68987;SDS011;56038;46.080;11.116;2023-02-01T19:04:10;9.80;;;6.03;;
68987;SDS011;56038;46.080;11.116;2023-02-01T19:09:13;14.57;;;8.60;;
68987;SDS011;56038;46.080;11.116;2023-02-01T19:14:16;13.20;;;8.45;;
68987;SDS011;56038;46.080;11.116;2023-02-01T19:19:18;10.32;;;7.63;;
68987;SDS011;56038;46.080;11.116;2023-02-01T19:24:20;19.25;;;10.00;;
68987;SDS011;56038;46.080;11.116;2023-02-01T19:29:24;16.65;;;10.15;;
68987;SDS011;56038;46.080;11.116;2023-02-01T19:34:25;9.10;;;6.50;;
68987;SDS011;56038;46.080;11.116;2023-02-01T19:39:27;13.35;;;7.57;;
68987;SDS011;56038;46.080;11.116;2023-02-01T19:44:30;16.88;;;8.95;;
68987;SDS011;56038;46.080;11.116;2023-02-01T19:49:32;11.52;;;7.75;;
68987;SDS011;56038;46.080;11.116;2023-02-01T19:54:34;16.00;;;9.85;;
68987;SDS011;56038;46.080;11.116;2023-02-01T19:59:37;13.38;;;7.55;;
68987;SDS011;56038;46.080;11.116;2023-02-01T20:04:39;15.43;;;9.15;;
68987;SDS011;56038;46.080;11.116;2023-02-01T20:09:41;12.13;;;7.40;;
68987;SDS011;56038;46.080;11.116;2023-02-01T20:14:44;12.40;;;6.70;;
68987;SDS011;56038;46.080;11.116;2023-02-01T20:19:46;14.60;;;7.57;;
68987;SDS011;56038;46.080;11.116;2023-02-01T20:24:47;10.93;;;7.25;;
68987;SDS011;56038;46.080;11.116;2023-02-01T20:29:51;10.48;;;6.88;;
68987;SDS011;56038;46.080;11.116;2023-02-01T20:34:53;16.45;;;7.93;;
68987;SDS011;56038;46.080;11.116;2023-02-01T20:39:54;13.43;;;7.18;;
68987;SDS011;56038;46.080;11.116;2023-02-01T20:44:57;11.55;;;6.97;;
68987;SDS011;56038;46.080;11.116;2023-02-01T20:49:59;11.32;;;7.18;;
68987;SDS011;56038;46.080;11.116;2023-02-01T20:55:01;16.05;;;9.20;;
68987;SDS011;56038;46.080;11.116;2023-02-01T21:00:05;14.32;;;8.48;;
68987;SDS011;56038;46.080;11.116;2023-02-01T21:05:09;65.15;;;31.63;;
68987;SDS011;56038;46.080;11.116;2023-02-01T21:10:11;15.68;;;9.57;;
68987;SDS011;56038;46.080;11.116;2023-02-01T21:15:14;15.90;;;9.05;;
68987;SDS011;56038;46.080;11.116;2023-02-01T21:20:16;13.00;;;8.18;;
68987;SDS011;56038;46.080;11.116;2023-02-01T21:25:19;16.27;;;8.75;;
68987;SDS011;56038;46.080;11.116;2023-02-01T21:30:22;11.65;;;8.10;;
68987;SDS011;56038;46.080;11.116;2023-02-01T21:35:24;13.18;;;9.45;;
68987;SDS011;56038;46.080;11.116;2023-02-01T21:40:26;15.65;;;8.63;;
68987;SDS011;56038;46.080;11.116;2023-02-01T21:45:29;14.88;;;9.73;;
68987;SDS011;56038;46.080;11.116;2023-02-01T21:50:31;13.20;;;9.80;;
68987;SDS011;56038;46.080;11.116;2023-02-01T21:55:34;25.52;;;11.70;;
68987;SDS011;56038;46.080;11.116;2023-02-01T22:00:37;13.38;;;9.35;;
68987;SDS011;56038;46.080;11.116;2023-02-01T22:05:39;14.93;;;9.98;;
68987;SDS011;56038;46.080;11.116;2023-02-01T22:10:41;16.17;;;10.60;;
68987;SDS011;56038;46.080;11.116;2023-02-01T22:15:44;17.25;;;9.38;;
68987;SDS011;56038;46.080;11.116;2023-02-01T22:20:46;18.13;;;10.32;;
68987;SDS011;56038;46.080;11.116;2023-02-01T22:25:47;19.85;;;10.68;;
68987;SDS011;56038;46.080;11.116;2023-02-01T22:30:51;12.38;;;8.55;;
68987;SDS011;56038;46.080;11.116;2023-02-01T22:35:52;12.15;;;8.15;;
68987;SDS011;56038;46.080;11.116;2023-02-01T22:40:55;14.30;;;8.93;;
68987;SDS011;56038;46.080;11.116;2023-02-01T22:45:59;16.17;;;9.63;;
68987;SDS011;56038;46.080;11.116;2023-02-01T22:51:02;15.73;;;8.65;;
68987;SDS011;56038;46.080;11.116;2023-02-01T22:56:04;15.70;;;8.85;;
68987;SDS011;56038;46.080;11.116;2023-02-01T23:01:09;15.40;;;9.00;;
68987;SDS011;56038;46.080;11.116;2023-02-01T23:06:12;14.60;;;9.88;;
68987;SDS011;56038;46.080;11.116;2023-02-01T23:11:17;13.98;;;8.63;;
68987;SDS011;56038;46.080;11.116;2023-02-01T23:16:20;12.40;;;8.32;;
68987;SDS011;56038;46.080;11.116;2023-02-01T23:21:22;15.63;;;8.90;;
68987;SDS011;56038;46.080;11.116;2023-02-01T23:26:25;17.88;;;9.63;;
68987;SDS011;56038;46.080;11.116;2023-02-01T23:31:30;16.55;;;9.65;;
68987;SDS011;56038;46.080;11.116;2023-02-01T23:36:32;14.38;;;9.88;;
68987;SDS011;56038;46.080;11.116;2023-02-01T23:41:34;13.57;;;8.95;;
68987;SDS011;56038;46.080;11.116;2023-02-01T23:46:38;17.95;;;10.05;;
68987;SDS011;56038;46.080;11.116;2023-02-01T23:51:43;14.48;;;9.60;;
68987;SDS011;56038;46.080;11.116;2023-02-01T23:56:46;15.75;;;9.88;;
